Time;durP1;ratioP1;P1;durP2;ratioP2;P2;SDS_P1;SDS_P2;PMS_P1;PMS_P2;Temp;Humidity;BMP_temperature;BMP_pressure;BME280_temperature;BME280_humidity;BME280_pressure;Samples;Min_cycle;Max_cycle;Signal;HPM_P1;HPM_P2
2020/12/31 00:01:19;;;;;;;8.00;5.97;;;;;;;;;;5033206;28;20185;-51
2020/12/31 00:03:45;;;;;;;7.55;5.75;;;;;;;;;;5033949;28;20203;-51
2020/12/31 00:06:11;;;;;;;8.50;5.70;;;;;;;;;;5033948;28;20164;-50
2020/12/31 00:08:37;;;;;;;6.60;5.90;;;;;;;;;;5033758;28;20491;-50
2020/12/31 00:11:03;;;;;;;7.47;6.23;;;;;;;;;;5034119;28;20403;-50
2020/12/31 00:13:29;;;;;;;8.27;5.87;;;;;;;;;;5033291;28;20420;-51
2020/12/31 00:15:56;;;;;;;6.10;5.50;;;;;;;;;;5033740;28;20399;-50
2020/12/31 00:18:22;;;;;;;11.45;5.95;;;;;;;;;;5033448;28;20447;-49
2020/12/31 00:20:48;;;;;;;10.53;6.93;;;;;;;;;;5033628;28;20176;-49
2020/12/31 00:23:14;;;;;;;8.20;5.80;;;;;;;;;;5033037;28;20479;-50
2020/12/31 00:25:46;;;;;;;6.90;5.43;;;;;;;;;;5033610;28;20404;-51
2020/12/31 00:28:12;;;;;;;8.40;6.22;;;;;;;;;;5032359;28;20888;-50
2020/12/31 00:30:39;;;;;;;8.57;6.40;;;;;;;;;;5033244;28;20190;-50
2020/12/31 00:33:05;;;;;;;7.18;5.68;;;;;;;;;;5033024;28;20438;-50
2020/12/31 00:35:32;;;;;;;9.27;6.30;;;;;;;;;;5033204;28;20173;-50
2020/12/31 00:37:58;;;;;;;7.07;5.82;;;;;;;;;;5033358;28;20870;-50
2020/12/31 00:40:24;;;;;;;6.60;5.83;;;;;;;;;;5033195;28;20203;-50
2020/12/31 00:42:50;;;;;;;8.30;5.97;;;;;;;;;;5032962;28;20432;-50
2020/12/31 00:45:16;;;;;;;9.90;5.67;;;;;;;;;;5032921;28;20906;-50
2020/12/31 00:47:42;;;;;;;7.67;6.60;;;;;;;;;;5033185;28;20876;-51
2020/12/31 00:50:08;;;;;;;9.60;6.00;;;;;;;;;;5032949;28;20422;-49
2020/12/31 00:52:34;;;;;;;7.47;5.00;;;;;;;;;;5033447;28;20455;-51
2020/12/31 00:55:00;;;;;;;7.07;5.60;;;;;;;;;;5040247;28;20430;-49
2020/12/31 00:57:25;;;;;;;8.93;6.13;;;;;;;;;;5052812;28;20619;-50
2020/12/31 00:59:51;;;;;;;7.07;6.37;;;;;;;;;;5052635;28;20513;-50
2020/12/31 01:02:17;;;;;;;7.10;5.80;;;;;;;;;;5052428;28;20418;-49
2020/12/31 01:04:43;;;;;;;8.50;6.60;;;;;;;;;;5052762;28;20396;-49
2020/12/31 01:07:14;;;;;;;8.67;6.93;;;;;;;;;;5052507;28;20400;-50
2020/12/31 01:09:40;;;;;;;8.43;6.45;;;;;;;;;;5052703;28;20401;-50
2020/12/31 01:12:06;;;;;;;8.30;7.40;;;;;;;;;;5052140;28;20530;-50
2020/12/31 01:14:32;;;;;;;11.00;7.07;;;;;;;;;;5052530;28;20430;-50
2020/12/31 01:16:58;;;;;;;9.00;6.90;;;;;;;;;;5052270;28;20450;-49
2020/12/31 01:19:24;;;;;;;7.90;6.43;;;;;;;;;;5052470;28;20426;-49
2020/12/31 01:21:50;;;;;;;10.43;6.50;;;;;;;;;;5052147;28;20419;-50
2020/12/31 01:24:16;;;;;;;7.73;6.57;;;;;;;;;;5038778;28;21131;-50
2020/12/31 01:26:42;;;;;;;9.60;7.30;;;;;;;;;;5039441;28;20524;-50
2020/12/31 01:29:07;;;;;;;9.77;6.83;;;;;;;;;;5052278;28;20398;-50
2020/12/31 01:31:33;;;;;;;15.40;7.57;;;;;;;;;;5051803;28;20500;-50
2020/12/31 01:34:00;;;;;;;9.67;7.50;;;;;;;;;;5052274;28;20417;-51
2020/12/31 01:36:26;;;;;;;10.02;7.18;;;;;;;;;;5052204;28;20498;-50
2020/12/31 01:38:52;;;;;;;7.65;6.95;;;;;;;;;;5051769;28;20196;-50
2020/12/31 01:41:22;;;;;;;8.20;6.18;;;;;;;;;;5051838;28;20177;-50
2020/12/31 01:44:06;;;;;;;9.95;7.40;;;;;;;;;;5051900;28;20191;-49
2020/12/31 01:46:34;;;;;;;9.02;7.32;;;;;;;;;;5051949;28;20658;-48
2020/12/31 01:49:01;;;;;;;10.15;7.65;;;;;;;;;;5052055;28;20172;-50
2020/12/31 01:51:28;;;;;;;9.95;7.18;;;;;;;;;;5051829;28;20549;-50
2020/12/31 01:53:56;;;;;;;7.30;6.60;;;;;;;;;;5050185;28;20583;-50
2020/12/31 01:56:27;;;;;;;10.40;6.90;;;;;;;;;;5052096;28;20180;-50
2020/12/31 01:58:53;;;;;;;11.60;7.97;;;;;;;;;;5051619;28;20200;-51
2020/12/31 02:01:20;;;;;;;10.93;8.47;;;;;;;;;;5051097;28;20184;-49
2020/12/31 02:03:46;;;;;;;11.02;7.50;;;;;;;;;;5050861;28;20421;-51
2020/12/31 02:06:12;;;;;;;9.67;7.33;;;;;;;;;;5051195;28;20529;-50
2020/12/31 02:08:38;;;;;;;10.52;7.30;;;;;;;;;;5051337;28;20405;-51
2020/12/31 02:11:04;;;;;;;10.50;7.33;;;;;;;;;;5051442;28;20634;-49
2020/12/31 02:13:32;;;;;;;12.75;7.95;;;;;;;;;;5051162;28;20421;-52
2020/12/31 02:15:58;;;;;;;10.32;8.05;;;;;;;;;;5051446;28;20175;-50
2020/12/31 02:18:24;;;;;;;11.82;7.80;;;;;;;;;;5051300;28;20221;-52
2020/12/31 02:20:50;;;;;;;10.83;7.67;;;;;;;;;;5051160;28;20163;-51
2020/12/31 02:23:16;;;;;;;9.13;7.40;;;;;;;;;;5050934;28;20421;-50
2020/12/31 02:25:42;;;;;;;13.53;8.23;;;;;;;;;;5033208;28;20426;-51
2020/12/31 02:28:08;;;;;;;10.87;7.73;;;;;;;;;;5031297;28;20486;-49
2020/12/31 02:30:34;;;;;;;7.90;6.77;;;;;;;;;;5031071;28;20899;-50
2020/12/31 02:33:00;;;;;;;11.83;9.27;;;;;;;;;;5030880;28;20449;-50
2020/12/31 02:35:26;;;;;;;14.40;8.00;;;;;;;;;;5031029;28;20399;-50
2020/12/31 02:37:52;;;;;;;12.93;8.60;;;;;;;;;;5031034;28;20962;-50
2020/12/31 02:40:18;;;;;;;14.73;8.70;;;;;;;;;;5031534;28;20442;-50
2020/12/31 02:42:44;;;;;;;12.53;7.33;;;;;;;;;;5030710;28;20445;-49
2020/12/31 02:45:10;;;;;;;9.93;7.50;;;;;;;;;;5030754;28;20449;-51
2020/12/31 02:47:39;;;;;;;9.60;6.93;;;;;;;;;;5031065;28;20406;-50
2020/12/31 02:50:05;;;;;;;10.85;9.00;;;;;;;;;;5030247;28;20449;-50
2020/12/31 02:52:31;;;;;;;8.95;7.15;;;;;;;;;;5030595;28;20276;-50
2020/12/31 02:54:57;;;;;;;10.43;7.53;;;;;;;;;;5036191;28;20267;-50
2020/12/31 02:57:23;;;;;;;10.70;8.03;;;;;;;;;;5050577;28;20446;-51
2020/12/31 02:59:49;;;;;;;10.33;7.30;;;;;;;;;;5050552;28;20429;-51
2020/12/31 03:02:15;;;;;;;10.47;6.93;;;;;;;;;;5050243;28;20500;-50
2020/12/31 03:04:41;;;;;;;10.63;7.57;;;;;;;;;;5050610;28;20391;-50
2020/12/31 03:07:07;;;;;;;9.77;7.00;;;;;;;;;;5050449;28;20398;-50
2020/12/31 03:09:32;;;;;;;11.63;7.73;;;;;;;;;;5050636;28;20495;-49
2020/12/31 03:11:58;;;;;;;10.77;8.20;;;;;;;;;;5050202;28;20398;-51
2020/12/31 03:14:24;;;;;;;10.73;7.90;;;;;;;;;;5050472;28;20900;-52
2020/12/31 03:16:50;;;;;;;9.87;7.60;;;;;;;;;;5050462;28;20468;-51
2020/12/31 03:19:16;;;;;;;11.17;7.73;;;;;;;;;;5050426;28;20464;-50
2020/12/31 03:21:42;;;;;;;10.67;8.33;;;;;;;;;;5050302;28;20441;-51
2020/12/31 03:24:08;;;;;;;10.13;7.33;;;;;;;;;;5050396;28;20425;-51
2020/12/31 03:26:34;;;;;;;14.20;8.38;;;;;;;;;;5034691;28;20429;-51
2020/12/31 03:29:00;;;;;;;12.47;7.90;;;;;;;;;;5030440;28;20185;-51
2020/12/31 03:31:26;;;;;;;9.83;7.90;;;;;;;;;;5030291;28;20406;-51
2020/12/31 03:33:52;;;;;;;12.60;8.60;;;;;;;;;;5036534;28;20453;-50
2020/12/31 03:36:18;;;;;;;12.33;8.03;;;;;;;;;;5050418;28;20443;-50
2020/12/31 03:38:44;;;;;;;16.70;9.00;;;;;;;;;;5050215;28;20453;-50
2020/12/31 03:41:10;;;;;;;9.77;6.87;;;;;;;;;;5050095;28;20905;-49
2020/12/31 03:43:36;;;;;;;11.67;7.90;;;;;;;;;;5050158;28;20983;-50
2020/12/31 03:46:02;;;;;;;9.43;7.20;;;;;;;;;;5050329;28;20425;-50
2020/12/31 03:48:28;;;;;;;13.60;8.63;;;;;;;;;;5050309;28;20410;-50
2020/12/31 03:50:53;;;;;;;9.33;7.40;;;;;;;;;;5050282;28;20502;-51
2020/12/31 03:53:20;;;;;;;11.47;8.00;;;;;;;;;;5048737;28;20435;-49
2020/12/31 03:55:46;;;;;;;12.57;8.85;;;;;;;;;;5043289;28;20986;-48
2020/12/31 03:58:11;;;;;;;13.00;8.43;;;;;;;;;;5030334;28;20207;-50
2020/12/31 04:00:37;;;;;;;13.10;8.27;;;;;;;;;;5030345;28;20437;-50
2020/12/31 04:03:03;;;;;;;13.70;8.23;;;;;;;;;;5033579;28;20827;-50
2020/12/31 04:05:29;;;;;;;10.87;7.87;;;;;;;;;;5034063;28;20758;-52
2020/12/31 04:07:55;;;;;;;10.13;7.90;;;;;;;;;;5034260;28;20413;-50
2020/12/31 04:10:21;;;;;;;12.53;8.00;;;;;;;;;;5034137;28;20407;-51
2020/12/31 04:12:47;;;;;;;12.90;9.00;;;;;;;;;;5033801;28;20479;-50
2020/12/31 04:15:13;;;;;;;11.53;8.00;;;;;;;;;;5033848;28;20782;-50
2020/12/31 04:17:39;;;;;;;11.23;8.23;;;;;;;;;;5033654;28;20850;-50
2020/12/31 04:20:06;;;;;;;10.70;8.63;;;;;;;;;;5033804;28;20173;-51
2020/12/31 04:22:32;;;;;;;13.65;9.05;;;;;;;;;;5033478;28;20192;-51
2020/12/31 04:24:58;;;;;;;14.10;8.77;;;;;;;;;;5033665;28;20257;-51
2020/12/31 04:27:24;;;;;;;11.52;9.02;;;;;;;;;;5033261;28;20418;-50
2020/12/31 04:29:50;;;;;;;10.87;7.93;;;;;;;;;;5033519;28;20177;-50
2020/12/31 04:32:16;;;;;;;10.13;8.07;;;;;;;;;;5032965;28;20406;-50
2020/12/31 04:34:42;;;;;;;14.60;9.20;;;;;;;;;;5033661;28;20403;-50
2020/12/31 04:37:08;;;;;;;11.50;7.87;;;;;;;;;;5033141;28;20487;-50
2020/12/31 04:39:33;;;;;;;14.70;8.75;;;;;;;;;;5033466;28;20431;-50
2020/12/31 04:41:59;;;;;;;11.50;8.23;;;;;;;;;;5032864;28;20227;-49
2020/12/31 04:44:26;;;;;;;10.00;7.90;;;;;;;;;;5033167;28;20760;-49
2020/12/31 04:46:57;;;;;;;15.65;8.88;;;;;;;;;;5032872;28;20414;-50
2020/12/31 04:49:28;;;;;;;11.13;8.05;;;;;;;;;;5033209;28;20174;-51
2020/12/31 04:51:55;;;;;;;9.43;6.97;;;;;;;;;;5032720;28;20168;-50
2020/12/31 04:54:21;;;;;;;10.43;8.30;;;;;;;;;;5032984;28;20275;-50
2020/12/31 04:56:47;;;;;;;12.45;7.57;;;;;;;;;;5032664;28;20191;-51
2020/12/31 04:59:13;;;;;;;10.23;7.75;;;;;;;;;;5032725;28;20196;-50
2020/12/31 05:01:45;;;;;;;9.27;7.32;;;;;;;;;;5032689;28;20640;-50
2020/12/31 05:04:11;;;;;;;10.15;7.35;;;;;;;;;;5032889;28;20694;-49
2020/12/31 05:06:38;;;;;;;8.80;7.40;;;;;;;;;;5032845;28;20169;-50
2020/12/31 05:09:14;;;;;;;9.23;7.25;;;;;;;;;;5032686;28;20171;-49
2020/12/31 05:11:44;;;;;;;10.23;7.38;;;;;;;;;;5032414;28;20222;-49
2020/12/31 05:14:10;;;;;;;10.82;7.05;;;;;;;;;;5031952;28;20711;-49
2020/12/31 05:16:36;;;;;;;8.63;6.73;;;;;;;;;;5032642;28;20176;-50
2020/12/31 05:19:19;;;;;;;9.50;7.10;;;;;;;;;;5032335;28;20446;-50
2020/12/31 05:21:45;;;;;;;7.53;6.68;;;;;;;;;;5032352;28;20407;-50
2020/12/31 05:24:14;;;;;;;7.93;6.30;;;;;;;;;;5032330;28;20772;-50
2020/12/31 05:26:41;;;;;;;8.27;6.18;;;;;;;;;;5031843;28;20176;-52
2020/12/31 05:29:08;;;;;;;7.32;5.40;;;;;;;;;;5032482;28;20184;-49
2020/12/31 05:31:53;;;;;;;6.47;5.78;;;;;;;;;;5032078;28;20725;-49
2020/12/31 05:34:31;;;;;;;7.97;6.15;;;;;;;;;;5032110;28;20227;-51
2020/12/31 05:37:13;;;;;;;6.95;5.90;;;;;;;;;;5032204;28;20536;-50
2020/12/31 05:39:54;;;;;;;7.55;5.70;;;;;;;;;;5032084;28;20206;-50
2020/12/31 05:42:20;;;;;;;7.38;6.15;;;;;;;;;;5031803;28;20159;-51
2020/12/31 05:45:03;;;;;;;9.60;6.60;;;;;;;;;;5032008;28;20180;-50
2020/12/31 05:47:29;;;;;;;12.60;6.75;;;;;;;;;;5032328;28;20198;-50
2020/12/31 05:49:55;;;;;;;7.03;5.90;;;;;;;;;;5031921;28;20255;-50
2020/12/31 05:52:32;;;;;;;7.73;6.30;;;;;;;;;;5031678;28;20613;-50
2020/12/31 05:55:00;;;;;;;9.27;6.30;;;;;;;;;;5031826;28;20434;-50
2020/12/31 05:57:36;;;;;;;7.78;5.65;;;;;;;;;;5032289;28;20186;-51
2020/12/31 06:00:07;;;;;;;6.75;6.03;;;;;;;;;;5031775;28;20171;-50
2020/12/31 06:02:35;;;;;;;7.78;6.70;;;;;;;;;;5031634;28;20242;-49
2020/12/31 06:05:08;;;;;;;6.70;6.00;;;;;;;;;;5031803;28;20161;-50
2020/12/31 06:07:38;;;;;;;8.50;6.40;;;;;;;;;;5031707;28;20601;-50
2020/12/31 06:10:05;;;;;;;7.05;6.35;;;;;;;;;;5031712;28;20232;-51
2020/12/31 06:12:42;;;;;;;7.93;6.20;;;;;;;;;;5031338;28;20549;-50
2020/12/31 06:15:09;;;;;;;6.53;5.80;;;;;;;;;;5031684;28;20175;-50
2020/12/31 06:17:44;;;;;;;6.85;5.65;;;;;;;;;;5031422;28;20191;-51
2020/12/31 06:20:12;;;;;;;6.82;5.95;;;;;;;;;;5031663;28;20234;-51
2020/12/31 06:22:51;;;;;;;6.45;5.85;;;;;;;;;;5030985;28;20188;-50
2020/12/31 06:25:31;;;;;;;6.78;6.07;;;;;;;;;;5030648;28;20175;-54
2020/12/31 06:27:58;;;;;;;6.25;5.28;;;;;;;;;;5043821;28;20183;-50
2020/12/31 06:30:26;;;;;;;6.53;5.10;;;;;;;;;;5051453;28;20631;-50
2020/12/31 06:32:54;;;;;;;6.70;5.80;;;;;;;;;;5050963;28;20187;-49
2020/12/31 06:35:21;;;;;;;6.25;5.20;;;;;;;;;;5051384;28;20203;-50
2020/12/31 06:37:56;;;;;;;5.82;5.22;;;;;;;;;;5051229;28;20737;-51
2020/12/31 06:40:29;;;;;;;6.18;5.68;;;;;;;;;;5051512;28;20221;-50
2020/12/31 06:43:06;;;;;;;5.93;5.32;;;;;;;;;;5050880;28;20183;-50
2020/12/31 06:45:36;;;;;;;5.07;4.55;;;;;;;;;;5051091;28;20182;-51
2020/12/31 06:48:02;;;;;;;4.93;4.43;;;;;;;;;;5051115;28;20251;-50
2020/12/31 06:50:46;;;;;;;6.32;5.43;;;;;;;;;;5051103;28;20229;-50
2020/12/31 06:53:27;;;;;;;4.75;4.25;;;;;;;;;;5050509;28;20193;-50
2020/12/31 06:55:53;;;;;;;5.97;5.38;;;;;;;;;;5050819;28;20167;-50
2020/12/31 06:58:22;;;;;;;5.88;5.28;;;;;;;;;;5036521;28;20219;-51
2020/12/31 07:00:48;;;;;;;5.65;5.00;;;;;;;;;;5047171;28;20176;-50
2020/12/31 07:03:14;;;;;;;5.30;4.78;;;;;;;;;;5049819;28;20194;-50
2020/12/31 07:05:40;;;;;;;5.18;4.68;;;;;;;;;;5050540;28;20170;-50
2020/12/31 07:08:06;;;;;;;5.67;4.90;;;;;;;;;;5050942;28;20257;-50
2020/12/31 07:10:45;;;;;;;5.07;4.68;;;;;;;;;;5050196;28;20391;-50
2020/12/31 07:13:30;;;;;;;5.00;4.50;;;;;;;;;;5050430;28;20206;-50
2020/12/31 07:15:56;;;;;;;4.55;3.80;;;;;;;;;;5050639;28;20175;-51
2020/12/31 07:18:24;;;;;;;4.20;3.80;;;;;;;;;;5050521;28;20731;-51
2020/12/31 07:20:50;;;;;;;4.90;4.28;;;;;;;;;;5050394;28;20166;-51
2020/12/31 07:23:16;;;;;;;5.07;4.53;;;;;;;;;;5050084;28;20658;-51
2020/12/31 07:25:43;;;;;;;6.73;4.30;;;;;;;;;;5050336;28;20242;-50
2020/12/31 07:28:15;;;;;;;4.88;4.40;;;;;;;;;;5042628;28;20860;-50
2020/12/31 07:30:51;;;;;;;4.60;4.05;;;;;;;;;;5030476;28;20195;-50
2020/12/31 07:33:36;;;;;;;4.30;3.78;;;;;;;;;;5030198;28;20237;-50
2020/12/31 07:36:14;;;;;;;4.35;4.05;;;;;;;;;;5030906;28;20196;-50
2020/12/31 07:38:41;;;;;;;4.88;4.47;;;;;;;;;;5034376;28;20200;-50
2020/12/31 07:41:11;;;;;;;4.82;4.32;;;;;;;;;;5039152;28;20656;-51
2020/12/31 07:43:38;;;;;;;5.10;4.05;;;;;;;;;;5034350;28;20187;-48
2020/12/31 07:46:04;;;;;;;3.38;3.08;;;;;;;;;;5034044;28;20600;-49
2020/12/31 07:48:31;;;;;;;4.10;3.70;;;;;;;;;;5036684;28;20640;-50
2020/12/31 07:50:58;;;;;;;3.88;3.58;;;;;;;;;;5034121;28;20649;-50
2020/12/31 07:53:24;;;;;;;3.90;3.60;;;;;;;;;;5033760;28;20208;-49
2020/12/31 07:55:51;;;;;;;3.60;3.30;;;;;;;;;;5032919;28;20168;-50
2020/12/31 07:58:18;;;;;;;4.18;3.88;;;;;;;;;;5033602;28;20199;-49
2020/12/31 08:00:44;;;;;;;3.88;3.55;;;;;;;;;;5032994;28;20179;-50
2020/12/31 08:03:10;;;;;;;6.43;4.67;;;;;;;;;;5033555;28;20577;-50
2020/12/31 08:05:36;;;;;;;5.38;3.88;;;;;;;;;;5034114;28;20882;-49
2020/12/31 08:08:02;;;;;;;3.65;3.35;;;;;;;;;;5033988;28;20175;-52
2020/12/31 08:10:31;;;;;;;4.63;3.50;;;;;;;;;;5034060;28;20171;-51
2020/12/31 08:12:57;;;;;;;4.13;3.72;;;;;;;;;;5033337;28;20791;-50
2020/12/31 08:15:26;;;;;;;3.67;3.40;;;;;;;;;;5034039;28;20180;-50
2020/12/31 08:18:04;;;;;;;3.38;3.10;;;;;;;;;;5033614;28;20439;-50
2020/12/31 08:20:35;;;;;;;3.83;3.53;;;;;;;;;;5033915;28;20236;-50
2020/12/31 08:23:02;;;;;;;3.33;3.13;;;;;;;;;;5033328;28;20671;-50
2020/12/31 08:25:40;;;;;;;4.10;3.80;;;;;;;;;;5033630;28;20258;-50
2020/12/31 08:28:07;;;;;;;3.40;3.17;;;;;;;;;;5041873;28;20742;-49
2020/12/31 08:30:34;;;;;;;4.03;3.25;;;;;;;;;;5053549;28;20171;-50
2020/12/31 08:33:02;;;;;;;3.47;3.20;;;;;;;;;;5053058;28;20196;-51
2020/12/31 08:35:29;;;;;;;4.40;3.83;;;;;;;;;;5046512;28;20169;-51
2020/12/31 08:37:58;;;;;;;3.85;3.55;;;;;;;;;;5033230;28;20282;-52
2020/12/31 08:40:24;;;;;;;3.40;3.20;;;;;;;;;;5033677;28;20242;-51
2020/12/31 08:42:54;;;;;;;4.27;3.57;;;;;;;;;;5033186;28;20686;-47
2020/12/31 08:45:27;;;;;;;4.15;3.70;;;;;;;;;;5033187;28;20410;-48
2020/12/31 08:47:53;;;;;;;3.58;3.28;;;;;;;;;;5032370;28;20233;-47
2020/12/31 08:50:19;;;;;;;3.80;3.50;;;;;;;;;;5033206;28;20864;-48
2020/12/31 08:52:45;;;;;;;3.63;3.35;;;;;;;;;;5032772;28;20537;-48
2020/12/31 08:55:12;;;;;;;3.60;3.30;;;;;;;;;;5033014;28;20536;-51
2020/12/31 08:57:38;;;;;;;4.20;3.80;;;;;;;;;;5033723;28;20204;-50
2020/12/31 09:00:05;;;;;;;3.45;3.25;;;;;;;;;;5032899;28;20197;-48
2020/12/31 09:02:31;;;;;;;3.92;3.63;;;;;;;;;;5032507;28;20208;-48
2020/12/31 09:05:13;;;;;;;3.50;3.20;;;;;;;;;;5032804;28;20262;-47
2020/12/31 09:07:39;;;;;;;4.25;3.70;;;;;;;;;;5033057;28;20168;-48
2020/12/31 09:10:15;;;;;;;4.07;3.78;;;;;;;;;;5032823;28;20200;-51
2020/12/31 09:12:42;;;;;;;4.22;3.85;;;;;;;;;;5049260;28;20202;-48
2020/12/31 09:15:08;;;;;;;4.50;4.10;;;;;;;;;;5052504;28;20240;-50
2020/12/31 09:17:34;;;;;;;7.13;4.80;;;;;;;;;;5052365;28;20554;-49
2020/12/31 09:20:01;;;;;;;4.40;4.00;;;;;;;;;;5052483;28;20532;-51
2020/12/31 09:22:27;;;;;;;5.15;4.30;;;;;;;;;;5052004;28;20189;-50
2020/12/31 09:24:54;;;;;;;4.00;3.60;;;;;;;;;;5052350;28;20170;-48
2020/12/31 09:27:26;;;;;;;5.53;4.57;;;;;;;;;;5052175;28;20193;-50
2020/12/31 09:29:59;;;;;;;6.05;4.78;;;;;;;;;;5035374;28;20174;-49
2020/12/31 09:32:25;;;;;;;4.60;4.20;;;;;;;;;;5031855;28;20235;-48
2020/12/31 09:34:51;;;;;;;4.93;4.53;;;;;;;;;;5032343;28;20535;-48
2020/12/31 09:37:17;;;;;;;4.20;3.90;;;;;;;;;;5032120;28;20176;-47
2020/12/31 09:39:43;;;;;;;4.68;4.30;;;;;;;;;;5032163;28;20443;-47
2020/12/31 09:42:10;;;;;;;5.55;5.05;;;;;;;;;;5031613;28;20183;-51
2020/12/31 09:44:36;;;;;;;6.70;5.38;;;;;;;;;;5032131;28;20231;-49
2020/12/31 09:47:02;;;;;;;5.60;5.00;;;;;;;;;;5031964;28;20192;-49
2020/12/31 09:49:28;;;;;;;5.63;4.95;;;;;;;;;;5032071;28;20212;-48
2020/12/31 09:51:54;;;;;;;5.43;4.80;;;;;;;;;;5031710;28;20192;-49
2020/12/31 09:54:20;;;;;;;4.93;4.43;;;;;;;;;;5031715;28;20215;-50
2020/12/31 09:56:46;;;;;;;4.50;4.10;;;;;;;;;;5031852;28;20426;-51
2020/12/31 09:59:12;;;;;;;6.05;5.38;;;;;;;;;;5031131;28;20471;-51
2020/12/31 10:01:38;;;;;;;5.30;4.80;;;;;;;;;;5031548;28;20171;-47
2020/12/31 10:04:04;;;;;;;4.82;4.30;;;;;;;;;;5042179;28;20424;-52
2020/12/31 10:06:30;;;;;;;4.63;4.23;;;;;;;;;;5030949;28;20179;-49
2020/12/31 10:08:56;;;;;;;5.33;4.53;;;;;;;;;;5029767;28;20475;-48
2020/12/31 10:11:22;;;;;;;6.00;4.63;;;;;;;;;;5030675;28;20409;-50
2020/12/31 10:13:48;;;;;;;5.00;4.43;;;;;;;;;;5030866;28;21012;-49
2020/12/31 10:16:14;;;;;;;4.05;3.75;;;;;;;;;;5030117;28;20910;-47
2020/12/31 10:18:40;;;;;;;4.20;3.58;;;;;;;;;;5031418;28;20202;-48
2020/12/31 10:21:06;;;;;;;4.40;4.10;;;;;;;;;;5031037;28;20183;-48
2020/12/31 10:23:32;;;;;;;5.03;4.53;;;;;;;;;;5031443;28;20517;-48
2020/12/31 10:25:58;;;;;;;4.43;4.10;;;;;;;;;;5031191;28;20261;-47
2020/12/31 10:28:24;;;;;;;4.53;4.00;;;;;;;;;;5030648;28;20429;-47
2020/12/31 10:30:50;;;;;;;3.70;3.40;;;;;;;;;;5031193;28;20405;-48
2020/12/31 10:33:16;;;;;;;3.95;3.65;;;;;;;;;;5030890;28;20253;-48
2020/12/31 10:35:45;;;;;;;4.85;4.43;;;;;;;;;;5030156;28;20575;-49
2020/12/31 10:38:11;;;;;;;4.35;3.95;;;;;;;;;;5031118;28;20188;-50
2020/12/31 10:40:37;;;;;;;3.80;3.50;;;;;;;;;;5031219;28;20174;-50
2020/12/31 10:43:03;;;;;;;3.70;3.40;;;;;;;;;;5030587;28;20426;-48
2020/12/31 10:45:29;;;;;;;4.27;3.87;;;;;;;;;;5031043;28;20483;-47
2020/12/31 10:47:55;;;;;;;4.40;4.00;;;;;;;;;;5031166;28;20767;-47
2020/12/31 10:50:21;;;;;;;4.13;3.80;;;;;;;;;;5031342;28;20481;-47
2020/12/31 10:52:47;;;;;;;4.03;3.73;;;;;;;;;;5030712;28;20314;-47
2020/12/31 10:55:13;;;;;;;4.30;3.80;;;;;;;;;;5031047;28;20766;-47
2020/12/31 10:57:39;;;;;;;5.03;3.33;;;;;;;;;;5030641;28;20496;-48
2020/12/31 11:00:05;;;;;;;3.40;3.10;;;;;;;;;;5030649;28;20432;-47
2020/12/31 11:02:31;;;;;;;4.93;4.53;;;;;;;;;;5030478;28;21008;-48
2020/12/31 11:04:57;;;;;;;5.03;3.33;;;;;;;;;;5030612;28;20808;-48
2020/12/31 11:07:23;;;;;;;3.55;3.25;;;;;;;;;;5030631;28;20410;-48
2020/12/31 11:09:49;;;;;;;3.38;3.17;;;;;;;;;;5037516;28;20223;-50
2020/12/31 11:12:16;;;;;;;4.50;4.10;;;;;;;;;;5030509;28;20173;-52
2020/12/31 11:14:42;;;;;;;3.25;3.05;;;;;;;;;;5050357;28;20807;-46
2020/12/31 11:17:08;;;;;;;3.42;2.72;;;;;;;;;;5050534;28;20162;-48
2020/12/31 11:19:34;;;;;;;3.20;3.00;;;;;;;;;;5066268;28;20691;-47
2020/12/31 11:22:00;;;;;;;3.30;3.10;;;;;;;;;;5070395;28;20760;-47
2020/12/31 11:24:26;;;;;;;3.87;3.57;;;;;;;;;;5070414;28;20422;-47
2020/12/31 11:26:52;;;;;;;3.50;3.20;;;;;;;;;;5069031;28;20486;-47
2020/12/31 11:29:18;;;;;;;3.40;3.10;;;;;;;;;;5060196;28;20428;-48
2020/12/31 11:31:44;;;;;;;4.20;3.80;;;;;;;;;;5048808;28;20442;-49
2020/12/31 11:34:10;;;;;;;3.60;3.30;;;;;;;;;;5038819;28;20519;-48
2020/12/31 11:36:36;;;;;;;3.40;3.20;;;;;;;;;;5038522;28;20253;-48
2020/12/31 11:39:02;;;;;;;3.88;3.58;;;;;;;;;;5038368;28;20455;-51
2020/12/31 11:41:28;;;;;;;3.90;3.50;;;;;;;;;;5043429;28;20172;-51
2020/12/31 11:43:54;;;;;;;4.38;3.28;;;;;;;;;;5033042;28;20344;-48
2020/12/31 11:46:20;;;;;;;3.80;3.60;;;;;;;;;;5037504;28;20179;-48
2020/12/31 11:48:46;;;;;;;3.30;3.00;;;;;;;;;;5038396;28;20180;-48
2020/12/31 11:51:12;;;;;;;4.50;3.35;;;;;;;;;;5039169;28;20513;-48
2020/12/31 11:53:39;;;;;;;3.47;3.20;;;;;;;;;;5040864;28;20230;-48
2020/12/31 11:56:05;;;;;;;3.35;3.05;;;;;;;;;;5046539;28;20177;-48
2020/12/31 11:58:31;;;;;;;4.60;3.70;;;;;;;;;;5035323;28;20208;-51
2020/12/31 12:00:58;;;;;;;3.65;3.13;;;;;;;;;;5035149;28;20185;-50
2020/12/31 12:03:24;;;;;;;3.47;3.25;;;;;;;;;;5047314;28;20201;-48
2020/12/31 12:05:51;;;;;;;3.70;3.40;;;;;;;;;;5050148;28;20181;-47
2020/12/31 12:08:17;;;;;;;2.53;2.40;;;;;;;;;;5050174;28;20177;-48
2020/12/31 12:10:43;;;;;;;3.45;3.17;;;;;;;;;;5061834;28;20584;-51
2020/12/31 12:13:09;;;;;;;5.87;3.87;;;;;;;;;;5069710;28;20690;-51
2020/12/31 12:15:35;;;;;;;3.40;3.20;;;;;;;;;;5070631;28;20415;-49
2020/12/31 12:18:01;;;;;;;2.90;2.70;;;;;;;;;;5070151;28;20195;-50
2020/12/31 12:20:28;;;;;;;2.73;2.13;;;;;;;;;;5070008;28;20170;-51
2020/12/31 12:22:54;;;;;;;2.90;2.70;;;;;;;;;;5068905;28;20416;-48
2020/12/31 12:25:20;;;;;;;2.97;2.70;;;;;;;;;;5073523;28;20182;-48
2020/12/31 12:27:46;;;;;;;2.20;2.10;;;;;;;;;;5073480;28;20573;-50
2020/12/31 12:30:12;;;;;;;2.90;2.70;;;;;;;;;;5056071;28;20487;-50
2020/12/31 12:32:38;;;;;;;2.10;2.00;;;;;;;;;;5052925;28;20424;-50
2020/12/31 12:35:05;;;;;;;2.75;2.55;;;;;;;;;;5053387;28;20184;-50
2020/12/31 12:37:31;;;;;;;2.75;2.50;;;;;;;;;;5052151;28;20262;-50
2020/12/31 12:39:57;;;;;;;2.80;2.60;;;;;;;;;;5053197;28;20224;-51
2020/12/31 12:42:23;;;;;;;5.10;2.80;;;;;;;;;;5052671;28;20404;-50
2020/12/31 12:44:49;;;;;;;2.63;2.43;;;;;;;;;;5053247;28;20408;-49
2020/12/31 12:47:15;;;;;;;2.60;2.40;;;;;;;;;;5052959;28;20419;-49
2020/12/31 12:49:44;;;;;;;2.87;2.47;;;;;;;;;;5052870;28;20836;-50
2020/12/31 12:52:10;;;;;;;3.38;3.10;;;;;;;;;;5052524;28;20418;-50
2020/12/31 12:54:36;;;;;;;2.60;2.40;;;;;;;;;;5033308;28;20179;-49
2020/12/31 12:57:02;;;;;;;2.70;2.50;;;;;;;;;;5043593;28;20434;-50
2020/12/31 12:59:28;;;;;;;3.38;3.00;;;;;;;;;;5042444;28;20473;-50
2020/12/31 13:01:54;;;;;;;3.08;2.78;;;;;;;;;;5040267;28;20211;-49
2020/12/31 13:04:20;;;;;;;2.97;2.77;;;;;;;;;;5050465;28;20626;-49
2020/12/31 13:06:47;;;;;;;2.93;2.73;;;;;;;;;;5052637;28;20488;-49
2020/12/31 13:09:13;;;;;;;3.08;2.88;;;;;;;;;;5052636;28;20491;-49
2020/12/31 13:11:39;;;;;;;2.73;2.53;;;;;;;;;;5050550;28;20606;-50
2020/12/31 13:14:05;;;;;;;3.03;2.67;;;;;;;;;;5044853;28;20441;-49
2020/12/31 13:16:31;;;;;;;2.87;2.67;;;;;;;;;;5042713;28;20479;-49
2020/12/31 13:18:57;;;;;;;2.77;2.57;;;;;;;;;;5032413;28;20531;-51
2020/12/31 13:21:23;;;;;;;3.03;2.85;;;;;;;;;;5031995;28;20413;-51
2020/12/31 13:23:49;;;;;;;3.30;3.00;;;;;;;;;;5044178;28;20192;-49
2020/12/31 13:26:16;;;;;;;3.13;2.93;;;;;;;;;;5043557;28;20188;-52
2020/12/31 13:28:42;;;;;;;3.35;2.90;;;;;;;;;;5048585;28;20419;-49
2020/12/31 13:31:08;;;;;;;2.95;2.80;;;;;;;;;;5047139;28;20231;-49
2020/12/31 13:33:34;;;;;;;3.00;2.80;;;;;;;;;;5067176;28;20196;-50
2020/12/31 13:36:00;;;;;;;2.40;2.30;;;;;;;;;;5070860;28;20178;-49
2020/12/31 13:38:27;;;;;;;2.78;2.58;;;;;;;;;;5071436;28;20282;-50
2020/12/31 13:40:53;;;;;;;2.70;2.53;;;;;;;;;;5072080;28;20639;-49
2020/12/31 13:43:19;;;;;;;2.60;2.50;;;;;;;;;;5071811;28;20191;-49
2020/12/31 13:45:45;;;;;;;3.13;2.93;;;;;;;;;;5072098;28;20613;-50
2020/12/31 13:48:11;;;;;;;3.10;2.80;;;;;;;;;;5072343;28;20411;-50
2020/12/31 13:50:38;;;;;;;2.78;2.58;;;;;;;;;;5072058;28;20171;-50
2020/12/31 13:53:05;;;;;;;3.30;3.10;;;;;;;;;;5071709;28;20770;-49
2020/12/31 13:55:31;;;;;;;5.40;3.08;;;;;;;;;;5071807;28;20175;-51
2020/12/31 13:57:57;;;;;;;3.40;3.10;;;;;;;;;;5071814;28;20311;-49
2020/12/31 14:00:23;;;;;;;2.97;2.78;;;;;;;;;;5059834;28;20616;-49
2020/12/31 14:02:49;;;;;;;3.77;3.47;;;;;;;;;;5031297;28;20211;-49
2020/12/31 14:05:15;;;;;;;3.60;3.30;;;;;;;;;;5031721;28;20761;-50
2020/12/31 14:07:41;;;;;;;3.50;3.20;;;;;;;;;;5031778;28;20391;-49
2020/12/31 14:10:09;;;;;;;3.50;3.30;;;;;;;;;;5031690;28;20170;-49
2020/12/31 14:12:35;;;;;;;5.82;3.88;;;;;;;;;;5031209;28;20428;-49
2020/12/31 14:15:01;;;;;;;4.35;3.72;;;;;;;;;;5031367;28;20171;-49
2020/12/31 14:17:27;;;;;;;2.97;2.78;;;;;;;;;;5031304;28;20534;-49
2020/12/31 14:19:54;;;;;;;3.58;3.28;;;;;;;;;;5031245;28;20281;-49
2020/12/31 14:22:21;;;;;;;2.88;2.67;;;;;;;;;;5031074;28;20202;-49
2020/12/31 14:24:47;;;;;;;2.85;2.65;;;;;;;;;;5036974;28;20169;-49
2020/12/31 14:27:13;;;;;;;3.22;3.03;;;;;;;;;;5051246;28;20171;-48
2020/12/31 14:29:39;;;;;;;3.58;3.38;;;;;;;;;;5049815;28;20186;-48
2020/12/31 14:32:07;;;;;;;3.50;3.30;;;;;;;;;;5050865;28;20170;-49
2020/12/31 14:34:33;;;;;;;3.40;3.20;;;;;;;;;;5050923;28;20565;-49
2020/12/31 14:36:59;;;;;;;4.50;4.03;;;;;;;;;;5050990;28;20673;-48
2020/12/31 14:39:25;;;;;;;4.37;4.07;;;;;;;;;;5050908;28;20978;-48
2020/12/31 14:41:52;;;;;;;3.92;3.53;;;;;;;;;;5051089;28;20403;-49